Time;durP1;ratioP1;P1;durP2;ratioP2;P2;SDS_P1;SDS_P2;PMS_P1;PMS_P2;Temp;Humidity;BMP_temperature;BMP_pressure;BME280_temperature;BME280_humidity;BME280_pressure;Samples;Min_cycle;Max_cycle;Signal;HPM_P1;HPM_P2
2023/07/04 00:01:09;;;;;;;12.55;3.63;;;;;;;-144.73;100.00;54440.53;5011131;28;20038;-78
2023/07/04 00:03:36;;;;;;;17.75;4.45;;;;;;;-144.73;100.00;54438.50;5011224;28;20108;-78
2023/07/04 00:06:04;;;;;;;11.23;3.33;;;;;;;-144.73;100.00;54477.47;5020279;28;20038;-77
2023/07/04 00:08:33;;;;;;;12.50;3.72;;;;;;;-144.73;100.00;54473.38;5017957;28;20029;-78
2023/07/04 00:10:59;;;;;;;16.08;4.13;;;;;;;-144.73;100.00;54481.59;5027387;28;20041;-77
2023/07/04 00:13:28;;;;;;;12.70;3.72;;;;;;;-144.73;100.00;54463.13;5004539;28;20056;-78
2023/07/04 00:15:55;;;;;;;16.08;4.50;;;;;;;-144.73;100.00;54448.75;5021735;28;20121;-77
2023/07/04 00:18:22;;;;;;;7.13;3.38;;;;;;;-144.73;100.00;54440.53;5015316;28;20037;-76
2023/07/04 00:20:54;;;;;;;17.77;4.82;;;;;;;-144.73;100.00;54463.13;5034818;28;20068;-77
2023/07/04 00:23:20;;;;;;;;;;;;;;;-144.73;100.00;54436.44;5033772;28;20041;-77
2023/07/04 00:25:46;;;;;;;11.27;3.35;;;;;;;-144.73;100.00;54444.66;5015347;28;19945;-78
2023/07/04 00:28:11;;;;;;;13.32;3.88;;;;;;;-144.73;100.00;54424.13;5015173;28;20049;-79
2023/07/04 00:30:37;;;;;;;17.27;3.85;;;;;;;-144.73;100.00;54444.66;5013692;28;20060;-77
2023/07/04 00:33:02;;;;;;;9.88;3.30;;;;;;;-144.73;100.00;54469.28;5011627;28;20478;-78
2023/07/04 00:35:28;;;;;;;9.80;4.25;;;;;;;-144.73;100.00;54461.06;5011514;28;20407;-78
2023/07/04 00:37:55;;;;;;;11.10;3.40;;;;;;;-144.73;100.00;54448.75;5012637;28;20082;-77
2023/07/04 00:40:21;;;;;;;17.77;3.72;;;;;;;-144.73;100.00;54461.06;5029315;28;20045;-77
2023/07/04 00:42:46;;;;;;;11.10;3.00;;;;;;;-144.73;100.00;54481.59;5013722;28;20517;-77
2023/07/04 00:45:20;;;;;;;17.55;4.20;;;;;;;-144.73;100.00;54469.28;5018263;28;20042;-77
2023/07/04 00:47:55;;;;;;;11.73;4.05;;;;;;;-144.73;100.00;54473.38;5016455;28;20410;-78
2023/07/04 00:50:26;;;;;;;14.00;3.17;;;;;;;-144.73;100.00;54446.69;5030660;28;20040;-79
2023/07/04 00:52:55;;;;;;;10.55;3.03;;;;;;;-144.73;100.00;54461.06;5018967;28;20028;-78
2023/07/04 00:55:21;;;;;;;13.35;3.15;;;;;;;-144.73;100.00;54436.44;5032150;28;20040;-78
2023/07/04 00:57:47;;;;;;;9.93;2.20;;;;;;;-144.73;100.00;54461.06;5032553;28;20021;-79
2023/07/04 01:00:24;;;;;;;12.52;3.97;;;;;;;-144.73;100.00;54498.00;5014156;28;20030;-78
2023/07/04 01:02:54;;;;;;;21.67;3.33;;;;;;;-144.73;100.00;54456.97;5030653;28;20029;-78
2023/07/04 01:05:43;;;;;;;16.45;3.15;;;;;;;-144.73;100.00;54444.66;5010517;28;20112;-78
2023/07/04 01:08:30;;;;;;;16.42;3.78;;;;;;;-144.73;100.00;54481.59;5013784;28;20446;-78
2023/07/04 01:10:59;;;;;;;12.15;2.85;;;;;;;-144.73;100.00;54456.97;5030400;28;20047;-78
2023/07/04 01:13:34;;;;;;;12.10;3.08;;;;;;;-144.73;100.00;54434.38;5029787;28;20076;-78
2023/07/04 01:16:11;;;;;;;7.85;2.50;;;;;;;-144.73;100.00;54465.16;5028923;28;20037;-78
2023/07/04 01:18:39;;;;;;;10.27;3.03;;;;;;;-144.73;100.00;54436.44;5021844;28;20033;-78
2023/07/04 01:21:07;;;;;;;9.93;2.53;;;;;;;-144.73;100.00;54477.47;5010171;28;20057;-78
2023/07/04 01:23:54;;;;;;;9.38;3.08;;;;;;;-144.73;100.00;54456.97;5028707;28;20033;-78
2023/07/04 01:26:39;;;;;;;10.50;2.83;;;;;;;-144.73;100.00;54469.28;5027483;28;20048;-76
2023/07/04 01:29:10;;;;;;;9.40;2.58;;;;;;;-144.73;100.00;54489.81;5013207;28;20432;-75
2023/07/04 01:31:36;;;;;;;14.57;4.03;;;;;;;-144.73;100.00;54440.53;5027931;28;20037;-76
2023/07/04 01:34:06;;;;;;;12.02;2.63;;;;;;;-144.73;100.00;54444.66;5029863;28;20112;-75
2023/07/04 01:36:34;;;;;;;19.67;2.72;;;;;;;-144.73;100.00;54487.75;5008837;28;20025;-74
2023/07/04 01:39:00;;;;;;;10.32;2.40;;;;;;;-144.73;100.00;54471.31;5029993;28;20021;-75
2023/07/04 01:41:26;;;;;;;13.20;3.30;;;;;;;-144.73;100.00;54459.00;5028234;28;20037;-75
2023/07/04 01:44:03;;;;;;;13.65;2.92;;;;;;;-144.73;100.00;54518.53;5029442;28;20041;-75
2023/07/04 01:46:28;;;;;;;13.50;3.35;;;;;;;-144.73;100.00;54461.06;5013735;28;20034;-76
2023/07/04 01:48:55;;;;;;;17.55;3.00;;;;;;;-144.73;100.00;54424.13;5015456;28;20104;-75
2023/07/04 01:51:28;;;;;;;8.68;2.88;;;;;;;-144.73;100.00;54461.06;5020602;28;20029;-74
2023/07/04 01:53:53;;;;;;;10.85;2.92;;;;;;;-144.73;100.00;54440.53;5015699;28;20112;-74
2023/07/04 01:56:18;;;;;;;15.63;3.22;;;;;;;-144.73;100.00;54465.16;5028734;28;20126;-75
2023/07/04 01:58:44;;;;;;;15.02;3.30;;;;;;;-144.73;100.00;54434.38;5011557;28;20029;-76
2023/07/04 02:01:09;;;;;;;13.48;3.13;;;;;;;-144.73;100.00;54456.97;5011540;28;20029;-75
2023/07/04 02:03:36;;;;;;;14.48;2.78;;;;;;;-144.73;100.00;54448.75;5012420;28;20021;-76
2023/07/04 02:06:01;;;;;;;17.00;2.70;;;;;;;-144.73;100.00;54420.00;5011377;28;20033;-76
2023/07/04 02:08:26;;;;;;;12.63;3.03;;;;;;;-144.73;100.00;54461.06;5011369;28;20021;-76
2023/07/04 02:10:52;;;;;;;10.68;2.47;;;;;;;-144.73;100.00;54440.53;5010329;28;20030;-75
2023/07/04 02:13:17;;;;;;;13.90;3.42;;;;;;;-144.73;100.00;54465.16;5010868;28;20038;-76
2023/07/04 02:15:43;;;;;;;11.65;3.13;;;;;;;-144.73;100.00;54467.22;5028793;28;20084;-77
2023/07/04 02:18:08;;;;;;;19.05;3.08;;;;;;;-144.73;100.00;54428.22;5028079;28;20079;-75
2023/07/04 02:20:34;;;;;;;8.75;2.75;;;;;;;-144.73;100.00;54467.22;5013495;28;20085;-75
2023/07/04 02:22:59;;;;;;;10.80;2.85;;;;;;;-144.73;100.00;54461.06;5027626;28;20017;-76
2023/07/04 02:25:24;;;;;;;15.13;3.35;;;;;;;-144.73;100.00;54477.47;5010729;28;20498;-76
2023/07/04 02:27:50;;;;;;;18.20;3.42;;;;;;;-144.73;100.00;54436.44;5028978;28;20017;-75
2023/07/04 02:30:15;;;;;;;13.88;3.75;;;;;;;-144.73;100.00;54424.13;5011627;28;20037;-76
2023/07/04 02:32:41;;;;;;;18.45;3.42;;;;;;;-144.73;100.00;54473.38;5011099;28;20467;-76
2023/07/04 02:35:07;;;;;;;17.55;3.55;;;;;;;-144.73;100.00;54477.47;5010396;28;20084;-76
2023/07/04 02:37:32;;;;;;;21.40;3.97;;;;;;;-144.73;100.00;54426.16;5007109;28;20022;-75
2023/07/04 02:39:57;;;;;;;16.85;3.92;;;;;;;-144.73;100.00;54456.97;5009609;28;20071;-76
2023/07/04 02:42:23;;;;;;;18.33;3.97;;;;;;;-144.73;100.00;54448.75;5027527;28;20120;-76
2023/07/04 02:44:48;;;;;;;16.13;3.72;;;;;;;-144.73;100.00;54446.69;5011008;28;20406;-76
2023/07/04 02:47:13;;;;;;;19.33;3.65;;;;;;;-144.73;100.00;54415.91;5027705;28;20025;-76
2023/07/04 02:49:39;;;;;;;12.68;3.35;;;;;;;-144.73;100.00;54452.84;5010430;28;20022;-76
2023/07/04 02:52:05;;;;;;;25.08;4.32;;;;;;;-144.73;100.00;54473.38;5011205;28;20026;-76
2023/07/04 02:54:30;;;;;;;15.27;3.65;;;;;;;-144.73;100.00;54424.13;5033742;28;20033;-75
2023/07/04 02:56:56;;;;;;;20.00;3.60;;;;;;;-144.73;100.00;54463.13;5019982;28;20025;-76
2023/07/04 02:59:21;;;;;;;10.60;2.83;;;;;;;-144.73;100.00;54424.13;5019928;28;20028;-76
2023/07/04 03:01:47;;;;;;;11.18;2.80;;;;;;;-144.73;100.00;54506.22;5022317;28;20025;-76
2023/07/04 03:04:13;;;;;;;21.55;3.95;;;;;;;-144.73;100.00;54473.38;5020435;28;20091;-76
2023/07/04 03:06:39;;;;;;;25.23;3.10;;;;;;;-144.73;100.00;54452.84;5010868;28;20052;-75
2023/07/04 03:09:04;;;;;;;21.55;3.70;;;;;;;-144.73;100.00;54473.38;5010925;28;20026;-75
2023/07/04 03:11:30;;;;;;;16.25;3.42;;;;;;;-144.73;100.00;54477.47;5026330;28;20036;-74
2023/07/04 03:13:55;;;;;;;15.63;3.47;;;;;;;-144.73;100.00;54436.44;5009563;28;20113;-75
2023/07/04 03:16:21;;;;;;;17.83;3.80;;;;;;;-144.73;100.00;54479.53;5026776;28;20053;-74
2023/07/04 03:18:46;;;;;;;28.13;4.35;;;;;;;-144.73;100.00;54479.53;5027640;28;20505;-75
2023/07/04 03:21:12;;;;;;;15.30;4.55;;;;;;;-144.73;100.00;54469.28;5012453;28;20042;-75
2023/07/04 03:23:37;;;;;;;17.98;3.92;;;;;;;-144.73;100.00;54415.91;5023843;28;20030;-76
2023/07/04 03:26:03;;;;;;;18.10;4.18;;;;;;;-144.73;100.00;54450.81;5010492;28;20080;-75
2023/07/04 03:28:28;;;;;;;20.23;4.72;;;;;;;-144.73;100.00;54489.81;5018107;28;20064;-75
2023/07/04 03:30:54;;;;;;;24.35;4.45;;;;;;;-144.73;100.00;54461.06;5009435;28;20033;-75
2023/07/04 03:33:20;;;;;;;24.45;5.18;;;;;;;-144.73;100.00;54493.91;5027819;28;20042;-75
2023/07/04 03:35:46;;;;;;;22.05;5.57;;;;;;;-144.73;100.00;54510.31;5010192;28;20038;-75
2023/07/04 03:38:11;;;;;;;19.88;4.75;;;;;;;-144.73;100.00;54440.53;5014758;28;20470;-75
2023/07/04 03:40:36;;;;;;;18.20;5.20;;;;;;;-144.73;100.00;54498.00;5014187;28;20037;-76
2023/07/04 03:43:02;;;;;;;33.17;5.13;;;;;;;-144.73;100.00;54448.75;5031615;28;20048;-75
2023/07/04 03:45:27;;;;;;;19.45;5.20;;;;;;;-144.73;100.00;54473.38;5031997;28;20048;-76
2023/07/04 03:47:53;;;;;;;16.30;6.03;;;;;;;-144.73;100.00;54436.44;5013199;28;20148;-75
2023/07/04 03:50:18;;;;;;;18.42;5.25;;;;;;;-144.73;100.00;54459.00;5013579;28;20044;-75
2023/07/04 03:52:44;;;;;;;23.80;5.88;;;;;;;-144.73;100.00;54438.50;5015397;28;20029;-76
2023/07/04 03:55:10;;;;;;;16.83;5.75;;;;;;;-144.73;100.00;54518.53;5016052;28;20030;-75
2023/07/04 03:57:35;;;;;;;25.02;6.60;;;;;;;-144.73;100.00;54442.59;5023232;28;20025;-76
2023/07/04 04:00:00;;;;;;;19.65;6.20;;;;;;;-144.73;100.00;54469.28;5037275;28;20032;-75
2023/07/04 04:02:26;;;;;;;20.20;6.10;;;;;;;-144.73;100.00;54477.47;5033018;28;20025;-75
2023/07/04 04:04:51;;;;;;;15.65;5.55;;;;;;;-144.73;100.00;54477.47;5039185;28;20053;-75
2023/07/04 04:07:17;;;;;;;18.45;5.78;;;;;;;-144.73;100.00;54463.13;5014182;28;20104;-75
2023/07/04 04:09:42;;;;;;;16.55;5.32;;;;;;;-144.73;100.00;54485.69;5007855;28;20433;-75
2023/07/04 04:12:08;;;;;;;15.85;6.65;;;;;;;-144.73;100.00;54442.59;5014228;28;20496;-75
2023/07/04 04:14:35;;;;;;;22.20;6.18;;;;;;;-144.73;100.00;54469.28;5013328;28;20026;-75
2023/07/04 04:17:01;;;;;;;20.60;5.82;;;;;;;-144.73;100.00;54448.75;5030750;28;20040;-75
2023/07/04 04:19:27;;;;;;;14.82;5.03;;;;;;;-144.73;100.00;54444.66;5015950;28;20037;-76
2023/07/04 04:21:53;;;;;;;15.60;5.88;;;;;;;-144.73;100.00;54493.91;5013670;28;20072;-76
2023/07/04 04:24:20;;;;;;;19.38;5.68;;;;;;;-144.73;100.00;54465.16;5031175;28;20121;-76
2023/07/04 04:26:46;;;;;;;20.92;6.85;;;;;;;-144.73;100.00;54452.84;5013493;28;20413;-76
2023/07/04 04:29:13;;;;;;;19.88;5.68;;;;;;;-144.73;100.00;54436.44;5014121;28;20022;-76
2023/07/04 04:31:39;;;;;;;18.40;5.22;;;;;;;-144.73;100.00;54485.69;5013096;28;20121;-76
2023/07/04 04:34:06;;;;;;;18.23;5.18;;;;;;;-144.73;100.00;54428.22;5014532;28;20056;-76
2023/07/04 04:36:32;;;;;;;18.58;4.90;;;;;;;-144.73;100.00;54506.22;5030340;28;20409;-76
2023/07/04 04:38:59;;;;;;;27.55;5.15;;;;;;;-144.73;100.00;54481.59;5029730;28;20025;-76
2023/07/04 04:41:25;;;;;;;26.60;5.47;;;;;;;-144.73;100.00;54456.97;5012683;28;20041;-76
2023/07/04 04:43:51;;;;;;;21.40;5.53;;;;;;;-144.73;100.00;54434.38;5034564;28;20079;-76
2023/07/04 04:46:17;;;;;;;14.32;4.60;;;;;;;-144.73;100.00;54481.59;5010854;28;20029;-76
2023/07/04 04:48:42;;;;;;;18.35;4.43;;;;;;;-144.73;100.00;54473.38;5016829;28;20025;-76
2023/07/04 04:51:26;;;;;;;13.75;4.22;;;;;;;-144.73;100.00;54489.81;5010237;28;20466;-76
2023/07/04 04:53:52;;;;;;;20.90;5.22;;;;;;;-144.73;100.00;54465.16;5025855;28;20030;-75
2023/07/04 04:56:17;;;;;;;27.77;4.80;;;;;;;-144.73;100.00;54440.53;5006129;28;20035;-75
2023/07/04 04:58:45;;;;;;;17.52;4.05;;;;;;;-144.73;100.00;54452.84;5013841;28;20032;-75
2023/07/04 05:01:14;;;;;;;15.73;4.43;;;;;;;-144.73;100.00;54473.38;5030078;28;20063;-76
2023/07/04 05:03:42;;;;;;;20.80;4.90;;;;;;;-144.73;100.00;54469.28;5024669;28;20030;-75
2023/07/04 05:06:07;;;;;;;17.05;3.75;;;;;;;-144.73;100.00;54456.97;5026205;28;20441;-75
2023/07/04 05:08:34;;;;;;;23.70;5.25;;;;;;;-144.73;100.00;54456.97;5013541;28;20032;-76
2023/07/04 05:11:07;;;;;;;19.23;4.07;;;;;;;-144.73;100.00;54456.97;5010813;28;20123;-76
2023/07/04 05:13:34;;;;;;;15.98;4.28;;;;;;;-144.73;100.00;54469.28;5012145;28;20044;-76
2023/07/04 05:16:04;;;;;;;24.52;5.50;;;;;;;-144.73;100.00;54452.84;5029420;28;20029;-76
2023/07/04 05:18:32;;;;;;;18.73;5.15;;;;;;;-144.73;100.00;54493.91;5030291;28;20029;-76
2023/07/04 05:21:10;;;;;;;23.65;5.38;;;;;;;-144.73;100.00;54469.28;5012828;28;20083;-76
2023/07/04 05:23:38;;;;;;;19.08;5.75;;;;;;;-144.73;100.00;54467.22;5030972;28;20029;-76
2023/07/04 05:26:07;;;;;;;20.52;4.88;;;;;;;-144.73;100.00;54454.91;5015641;28;20079;-76
2023/07/04 05:28:33;;;;;;;21.80;4.53;;;;;;;-144.73;100.00;54456.97;5013711;28;20025;-76
2023/07/04 05:31:00;;;;;;;13.63;4.90;;;;;;;-144.73;100.00;54413.84;5030031;28;20051;-76
2023/07/04 05:33:26;;;;;;;14.50;3.15;;;;;;;-144.73;100.00;54483.66;5028929;28;20021;-77
2023/07/04 05:35:51;;;;;;;18.30;3.65;;;;;;;-144.73;100.00;54452.84;5012391;28;20124;-77
2023/07/04 05:38:17;;;;;;;12.23;2.75;;;;;;;-144.73;100.00;54473.38;5013313;28;20079;-77
2023/07/04 05:40:43;;;;;;;18.70;3.55;;;;;;;-144.73;100.00;54465.16;5012568;28;20042;-77
2023/07/04 05:43:08;;;;;;;13.68;3.50;;;;;;;-144.73;100.00;54448.75;5012997;28;20021;-77
2023/07/04 05:45:34;;;;;;;15.50;3.75;;;;;;;-144.73;100.00;54454.91;5012282;28;20157;-77
2023/07/04 05:47:59;;;;;;;27.23;5.57;;;;;;;-144.73;100.00;54465.16;5012763;28;20021;-76
2023/07/04 05:50:24;;;;;;;22.10;4.55;;;;;;;-144.73;100.00;54510.31;5029291;28;20041;-77
2023/07/04 05:52:50;;;;;;;16.45;4.72;;;;;;;-144.73;100.00;54473.38;5012301;28;20049;-77
2023/07/04 05:55:15;;;;;;;14.57;4.35;;;;;;;-144.73;100.00;54481.59;5012387;28;20035;-76
2023/07/04 05:57:40;;;;;;;17.05;4.43;;;;;;;-144.73;100.00;54469.28;5011732;28;20056;-77
2023/07/04 06:00:06;;;;;;;16.95;4.30;;;;;;;-144.73;100.00;54465.16;5007794;28;20034;-77
2023/07/04 06:02:33;;;;;;;19.48;4.93;;;;;;;-144.73;100.00;54459.00;5026647;28;20025;-73
2023/07/04 06:04:58;;;;;;;22.45;4.70;;;;;;;-144.73;100.00;54440.53;5012292;28;20033;-77
2023/07/04 06:07:29;;;;;;;23.77;5.00;;;;;;;-144.73;100.00;54469.28;5024722;28;20505;-76
2023/07/04 06:09:54;;;;;;;21.33;4.10;;;;;;;-144.73;100.00;54452.84;5022977;28;20418;-76
2023/07/04 06:12:19;;;;;;;22.90;4.57;;;;;;;-144.73;100.00;54465.16;5003862;28;20026;-76
2023/07/04 06:14:45;;;;;;;26.20;5.07;;;;;;;-144.73;100.00;54493.91;5019660;28;20045;-76
2023/07/04 06:17:10;;;;;;;17.60;4.85;;;;;;;-144.73;100.00;54485.69;5008771;28;20014;-76
2023/07/04 06:19:35;;;;;;;18.58;3.90;;;;;;;-144.73;100.00;54461.06;5019953;28;20025;-76
2023/07/04 06:22:05;;;;;;;11.82;3.33;;;;;;;-144.73;100.00;54487.75;5011660;28;20060;-77
2023/07/04 06:24:30;;;;;;;15.88;3.83;;;;;;;-144.73;100.00;54483.66;5025954;28;20029;-76
2023/07/04 06:26:56;;;;;;;12.07;3.33;;;;;;;-144.73;100.00;54454.91;5011855;28;20041;-76
2023/07/04 06:29:21;;;;;;;19.83;3.42;;;;;;;-144.73;100.00;54448.75;5025898;28;20033;-76
2023/07/04 06:31:49;;;;;;;16.33;3.22;;;;;;;-144.73;100.00;54473.38;5021994;28;20478;-77
2023/07/04 06:34:14;;;;;;;17.85;3.95;;;;;;;-144.73;100.00;54432.31;5030938;28;20021;-76
2023/07/04 06:36:40;;;;;;;15.88;4.03;;;;;;;-144.73;100.00;54448.75;5008721;28;20060;-76
2023/07/04 06:39:05;;;;;;;22.17;4.80;;;;;;;-144.73;100.00;54463.13;5022399;28;20037;-76
2023/07/04 06:41:31;;;;;;;16.30;3.13;;;;;;;-144.73;100.00;54448.75;5029337;28;20061;-76
2023/07/04 06:43:56;;;;;;;16.30;2.90;;;;;;;-144.73;100.00;54420.00;5016821;28;20041;-76
2023/07/04 06:46:25;;;;;;;11.63;3.00;;;;;;;-144.73;100.00;54446.69;5010590;28;20033;-76
2023/07/04 06:48:51;;;;;;;7.95;3.20;;;;;;;-144.73;100.00;54469.28;5011398;28;20013;-76
2023/07/04 06:51:19;;;;;;;11.80;3.08;;;;;;;-144.73;100.00;54452.84;5027643;28;20558;-76
2023/07/04 06:53:45;;;;;;;15.02;3.47;;;;;;;-144.73;100.00;54452.84;5010336;28;20026;-75
2023/07/04 06:56:14;;;;;;;20.95;4.22;;;;;;;-144.73;100.00;54424.13;5027168;28;20033;-75
2023/07/04 06:58:41;;;;;;;17.08;4.32;;;;;;;-144.73;100.00;54424.13;5010867;28;20018;-76
2023/07/04 07:01:08;;;;;;;22.63;3.08;;;;;;;-144.73;100.00;54440.53;5035563;28;20050;-80
2023/07/04 07:03:34;;;;;;;15.73;3.67;;;;;;;-144.73;100.00;54440.53;5041415;28;20026;-80
2023/07/04 07:06:04;;;;;;;17.92;4.68;;;;;;;-144.73;100.00;54428.22;5043137;28;20052;-80
2023/07/04 07:08:30;;;;;;;20.23;3.47;;;;;;;-144.73;100.00;54424.13;5046180;28;20427;-80
2023/07/04 07:10:59;;;;;;;16.40;2.25;;;;;;;-144.73;100.00;54428.22;5027184;28;20068;-80
2023/07/04 07:13:25;;;;;;;12.50;2.80;;;;;;;-144.73;100.00;54448.75;5030425;28;20047;-80
2023/07/04 07:15:52;;;;;;;11.90;2.97;;;;;;;-144.73;100.00;54428.22;5024863;28;20038;-80
2023/07/04 07:18:17;;;;;;;19.23;3.53;;;;;;;-144.73;100.00;54444.66;5023709;28;20050;-80
2023/07/04 07:20:43;;;;;;;14.07;3.17;;;;;;;-144.73;100.00;54461.06;5025116;28;20037;-80
2023/07/04 07:23:09;;;;;;;19.60;3.05;;;;;;;-144.73;100.00;54420.00;5037908;28;20025;-80
2023/07/04 07:25:35;;;;;;;19.92;3.20;;;;;;;-144.73;100.00;54448.75;5040508;28;20034;-79
2023/07/04 07:28:00;;;;;;;17.15;3.78;;;;;;;-144.73;100.00;54461.06;5028536;28;20002;-80
2023/07/04 07:30:26;;;;;;;10.55;3.67;;;;;;;-144.73;100.00;54448.75;5025442;28;20052;-80
2023/07/04 07:32:51;;;;;;;13.32;3.78;;;;;;;-144.73;100.00;54456.97;5026734;28;20017;-80
2023/07/04 07:35:17;;;;;;;16.50;3.83;;;;;;;-144.73;100.00;54436.44;5023919;28;20021;-80
2023/07/04 07:37:42;;;;;;;14.65;2.90;;;;;;;-144.73;100.00;54469.28;5027491;28;20026;-80
2023/07/04 07:40:08;;;;;;;21.05;3.38;;;;;;;-144.73;100.00;54436.44;5026896;28;20029;-80
2023/07/04 07:42:35;;;;;;;15.10;4.00;;;;;;;-144.73;100.00;54473.38;5027808;28;20026;-80
2023/07/04 07:45:01;;;;;;;7.97;3.35;;;;;;;-144.73;100.00;54448.75;5043792;28;20017;-79
2023/07/04 07:47:26;;;;;;;6.90;2.50;;;;;;;-144.73;100.00;54420.00;5028241;28;20035;-79
2023/07/04 07:49:52;;;;;;;19.98;3.05;;;;;;;-144.73;100.00;54428.22;5030922;28;20037;-79
2023/07/04 07:52:17;;;;;;;20.60;3.72;;;;;;;-144.73;100.00;54456.97;5031270;28;20120;-79
2023/07/04 07:54:43;;;;;;;11.27;3.22;;;;;;;-144.73;100.00;54461.06;5026365;28;20107;-79
2023/07/04 07:57:09;;;;;;;10.70;3.08;;;;;;;-144.73;100.00;54448.75;5044684;28;20044;-79
2023/07/04 07:59:34;;;;;;;14.48;2.95;;;;;;;-144.73;100.00;54420.00;5026153;28;20018;-80
2023/07/04 08:02:01;;;;;;;15.57;3.15;;;;;;;-144.73;100.00;54436.44;5043339;28;20080;-79
2023/07/04 08:04:26;;;;;;;10.60;2.88;;;;;;;-144.73;100.00;54420.00;5025801;28;20035;-81
2023/07/04 08:06:52;;;;;;;8.38;2.53;;;;;;;-144.73;100.00;54411.81;5026759;28;20081;-81
2023/07/04 08:09:19;;;;;;;11.93;2.72;;;;;;;-144.73;100.00;54428.22;5027974;28;20021;-80
2023/07/04 08:11:45;;;;;;;13.90;3.55;;;;;;;-144.73;100.00;54393.34;5035266;28;20041;-80
2023/07/04 08:14:13;;;;;;;10.63;3.00;;;;;;;-144.73;100.00;54436.44;5043017;28;20025;-80
2023/07/04 08:16:45;;;;;;;13.23;3.47;;;;;;;-144.73;100.00;54424.13;5024303;28;20038;-80
2023/07/04 08:19:11;;;;;;;13.85;3.15;;;;;;;-144.73;100.00;54432.31;5039809;28;20018;-81
2023/07/04 08:21:36;;;;;;;19.77;3.45;;;;;;;-144.73;98.49;54417.97;5021977;28;20033;-80
2023/07/04 08:24:03;;;;;;;11.05;2.97;;;;;;;-144.73;99.12;54442.59;5025446;28;20028;-81
2023/07/04 08:26:29;;;;;;;13.80;3.20;;;;;;;-144.73;99.09;54456.97;5013192;28;20490;-78
2023/07/04 08:28:56;;;;;;;11.63;3.10;;;;;;;-144.73;96.15;54415.91;5030813;28;20052;-80
2023/07/04 08:31:23;;;;;;;9.95;3.03;;;;;;;-144.73;94.70;54448.75;5047143;28;20033;-79
2023/07/04 08:33:49;;;;;;;12.57;2.85;;;;;;;-144.73;96.61;54411.81;5045161;28;20022;-79
2023/07/04 08:36:16;;;;;;;15.00;3.58;;;;;;;-144.73;91.87;54383.06;5021550;28;20045;-79
2023/07/04 08:38:43;;;;;;;13.98;3.50;;;;;;;-144.73;92.36;54444.66;5023181;28;20033;-79
2023/07/04 08:41:19;;;;;;;10.70;3.25;;;;;;;-144.73;93.83;54420.00;5046106;28;20029;-79
2023/07/04 08:43:55;;;;;;;8.10;2.60;;;;;;;-144.73;92.92;54461.06;5029013;28;20072;-79
2023/07/04 08:46:21;;;;;;;11.32;2.83;;;;;;;-144.73;93.65;54432.31;5030379;28;20042;-79
2023/07/04 08:48:47;;;;;;;15.63;3.05;;;;;;;-144.73;92.69;54424.13;5030973;28;20044;-79
2023/07/04 08:51:20;;;;;;;6.65;2.15;;;;;;;-144.73;88.22;54411.81;5047079;28;20041;-79
2023/07/04 08:53:53;;;;;;;10.95;2.60;;;;;;;-144.73;89.42;54415.91;5044003;28;20018;-79
2023/07/04 08:56:33;;;;;;;9.18;2.92;;;;;;;-144.73;88.87;54432.31;5047889;28;20394;-79
2023/07/04 08:59:41;;;;;;;15.35;3.38;;;;;;;-144.73;91.28;54407.69;5048568;28;20037;-79
2023/07/04 09:02:35;;;;;;;8.40;2.47;;;;;;;-144.73;88.96;54387.19;5015849;28;20052;-79
2023/07/04 09:05:25;;;;;;;7.13;2.13;;;;;;;-144.73;90.00;54428.22;5028019;28;20041;-79
2023/07/04 09:08:30;;;;;;;9.45;2.70;;;;;;;-144.73;89.35;54407.69;5044940;28;20024;-79
2023/07/04 09:11:06;;;;;;;13.73;3.10;;;;;;;-144.73;87.07;54407.69;5040642;28;20037;-79
2023/07/04 09:13:41;;;;;;;8.38;2.70;;;;;;;-144.73;86.79;54436.44;5047168;28;20044;-79
2023/07/04 09:16:10;;;;;;;8.68;1.98;;;;;;;-144.73;88.65;54415.91;5024031;28;20034;-79
2023/07/04 09:18:56;;;;;;;9.52;3.03;;;;;;;-144.73;85.45;54473.38;5047468;28;20036;-78
2023/07/04 09:21:23;;;;;;;9.50;2.45;;;;;;;-144.73;86.35;54411.81;5041912;28;20041;-79
2023/07/04 09:23:51;;;;;;;13.65;2.38;;;;;;;-144.73;84.13;54424.13;5047253;28;20061;-79
2023/07/04 09:26:20;;;;;;;9.15;2.38;;;;;;;-144.73;79.17;54444.66;5032816;28;20030;-78
2023/07/04 09:28:49;;;;;;;13.07;2.20;;;;;;;-144.73;83.38;54432.31;5035634;28;20025;-78
2023/07/04 09:31:19;;;;;;;5.60;1.85;;;;;;;-144.73;85.46;54415.91;5029910;28;20033;-78
2023/07/04 09:33:48;;;;;;;11.82;2.00;;;;;;;-144.73;84.76;54383.06;5026819;28;20079;-78
2023/07/04 09:36:16;;;;;;;8.90;1.77;;;;;;;-144.73;85.88;54440.53;5044538;28;20029;-78
2023/07/04 09:39:00;;;;;;;8.00;2.15;;;;;;;-144.73;93.65;54391.28;5039237;28;20064;-79
2023/07/04 09:41:31;;;;;;;31.38;2.78;;;;;;;-144.73;100.00;54428.22;5016802;28;20044;-73
2023/07/04 09:44:12;;;;;;;7.37;1.90;;;;;;;-144.73;100.00;54434.38;5030592;28;20083;-71
2023/07/04 09:46:38;;;;;;;10.57;2.40;;;;;;;-144.73;100.00;54409.75;5030276;28;20386;-70
2023/07/04 09:49:25;;;;;;;9.93;3.40;;;;;;;-144.73;100.00;54452.84;5030943;28;20022;-70
2023/07/04 09:52:04;;;;;;;10.02;2.67;;;;;;;-144.73;100.00;54477.47;5031179;28;20167;-71
2023/07/04 09:54:35;;;;;;;13.00;2.55;;;;;;;-144.73;100.00;54378.97;5013765;28;20053;-70
2023/07/04 09:57:23;;;;;;;11.75;2.47;;;;;;;-144.73;100.00;54444.66;5014246;28;20025;-70
2023/07/04 09:59:50;;;;;;;9.07;2.45;;;;;;;-144.73;100.00;54428.22;5031434;28;20038;-73
2023/07/04 10:02:34;;;;;;;10.27;2.65;;;;;;;-144.73;99.16;54358.44;5014076;28;20049;-73
2023/07/04 10:05:00;;;;;;;11.13;2.08;;;;;;;-144.73;100.00;54428.22;5039565;28;20051;-72
2023/07/04 10:07:27;;;;;;;7.40;2.25;;;;;;;-144.73;94.04;54428.22;5032963;28;20021;-72
2023/07/04 10:10:05;;;;;;;12.52;2.20;;;;;;;-144.73;99.59;54432.31;5006432;28;20034;-73
2023/07/04 10:12:33;;;;;;;10.55;2.42;;;;;;;-144.73;100.00;54428.22;5003927;28;20022;-73
2023/07/04 10:14:59;;;;;;;8.43;2.40;;;;;;;-144.73;92.84;54358.44;4998797;28;20040;-73
2023/07/04 10:17:28;;;;;;;10.88;2.20;;;;;;;-144.73;91.18;54440.53;5010198;28;20379;-73
2023/07/04 10:20:10;;;;;;;10.48;1.90;;;;;;;-144.73;89.24;54444.66;5008585;28;20042;-74
2023/07/04 10:22:38;;;;;;;4.32;1.50;;;;;;;-144.73;86.54;54407.69;5020838;28;20040;-72
2023/07/04 10:25:10;;;;;;;7.50;1.90;;;;;;;-144.73;83.97;54428.22;5013184;28;20033;-73
2023/07/04 10:27:38;;;;;;;11.88;2.33;;;;;;;-144.73;85.34;54391.28;5013874;28;20033;-72
2023/07/04 10:30:06;;;;;;;6.28;2.03;;;;;;;-144.73;81.07;54440.53;5029124;28;20033;-73
2023/07/04 10:32:39;;;;;;;11.23;2.10;;;;;;;-144.73;76.33;54383.06;5029849;28;20021;-73
2023/07/04 10:35:09;;;;;;;8.57;1.77;;;;;;;-144.73;73.93;54407.69;5029823;28;20049;-74
2023/07/04 10:37:37;;;;;;;4.57;1.40;;;;;;;-144.73;73.66;54383.06;5030181;28;20025;-74
2023/07/04 10:40:08;;;;;;;9.27;1.90;;;;;;;-144.73;74.87;54428.22;5029815;28;20032;-72
2023/07/04 10:42:43;;;;;;;7.97;1.40;;;;;;;-144.73;69.66;54407.69;5030053;28;20017;-72
2023/07/04 10:45:13;;;;;;;2.92;1.20;;;;;;;-144.73;65.54;54399.50;5029266;28;20033;-72
2023/07/04 10:47:39;;;;;;;3.58;1.30;;;;;;;-144.73;63.04;54424.13;5029701;28;20017;-72
2023/07/04 10:50:10;;;;;;;10.55;1.95;;;;;;;-144.73;59.79;54387.19;5012449;28;20506;-72
2023/07/04 10:52:36;;;;;;;5.85;1.40;;;;;;;-144.73;59.89;54368.69;5029634;28;20030;-71
2023/07/04 10:55:03;;;;;;;10.68;1.65;;;;;;;-144.73;59.87;54372.81;5012807;28;20029;-71
2023/07/04 10:57:37;;;;;;;5.22;1.85;;;;;;;-144.73;60.06;54407.69;5013222;28;20032;-71
2023/07/04 11:00:10;;;;;;;12.30;2.00;;;;;;;-144.73;58.07;54358.44;5028897;28;20026;-71
2023/07/04 11:02:39;;;;;;;12.38;1.92;;;;;;;-144.73;56.87;54407.69;5008990;28;20046;-74
2023/07/04 11:05:12;;;;;;;6.15;1.98;;;;;;;-144.73;56.88;54424.13;5023798;28;20065;-73
2023/07/04 11:07:40;;;;;;;5.63;1.75;;;;;;;-144.73;58.11;54395.38;5020756;28;20382;-73
2023/07/04 11:10:09;;;;;;;8.68;2.78;;;;;;;-144.73;56.96;54420.00;5016411;28;20026;-73